Richburg, South Carolina
Current Conditions -  °F | °C
As of 1:15 PM on Thursday 18 Dec 2014 (Local Time) from KLKR Reporting Station
Clear Clear  
Wind Chill: 55°   Ceiling: Unl
Heat Index: 55°   Visibility: 10mi
Dew Point: 25°   Wind: 7mph
Humidity: 31%   Direction: 130°SE
Pressure: 30.11"   Gusts: NA
Location:  34.72°N, 81.02°W
Report Text: KLKR 181815Z AUTO 13006KT 10SM CLR 13/M04 A3011 RMK AO2
Loading
Personal Weather Stations






























Interactive Weather Map New forecast layout! Learn more

10-Day Weather Forecast

Advertisements
Track Severe Weather on mobile